sensor_id;sensor_type;location;lat;lon;timestamp;noise_LAeq;noise_LA_min;noise_LA_max;noise_LA01;noise_LA95
51665;Laerm;37751;52.408;12.536;2023-07-16T00:00:27;57.11;42.38;69.89;;
51665;Laerm;37751;52.408;12.536;2023-07-16T00:02:55;56.43;43.53;68.36;;
51665;Laerm;37751;52.408;12.536;2023-07-16T00:05:23;53.60;39.81;68.07;;
51665;Laerm;37751;52.408;12.536;2023-07-16T00:07:51;51.00;40.81;67.81;;
51665;Laerm;37751;52.408;12.536;2023-07-16T00:10:19;48.51;40.92;66.94;;
51665;Laerm;37751;52.408;12.536;2023-07-16T00:12:47;53.89;42.30;67.85;;
51665;Laerm;37751;52.408;12.536;2023-07-16T00:15:15;55.78;42.75;69.58;;
51665;Laerm;37751;52.408;12.536;2023-07-16T00:17:43;53.26;42.19;68.52;;
51665;Laerm;37751;52.408;12.536;2023-07-16T00:20:11;50.39;41.43;66.20;;
51665;Laerm;37751;52.408;12.536;2023-07-16T00:22:39;54.50;41.62;66.69;;
51665;Laerm;37751;52.408;12.536;2023-07-16T00:25:07;53.54;43.03;68.23;;
51665;Laerm;37751;52.408;12.536;2023-07-16T00:27:35;53.01;41.62;67.31;;
51665;Laerm;37751;52.408;12.536;2023-07-16T00:30:04;53.98;42.96;69.62;;
51665;Laerm;37751;52.408;12.536;2023-07-16T00:32:32;57.07;46.77;70.11;;
51665;Laerm;37751;52.408;12.536;2023-07-16T00:35:01;55.43;42.82;69.67;;
51665;Laerm;37751;52.408;12.536;2023-07-16T00:37:29;53.85;43.59;68.09;;
51665;Laerm;37751;52.408;12.536;2023-07-16T00:39:57;53.34;43.88;68.72;;
51665;Laerm;37751;52.408;12.536;2023-07-16T00:42:25;52.60;42.06;67.67;;
51665;Laerm;37751;52.408;12.536;2023-07-16T00:44:52;57.27;43.16;71.36;;
51665;Laerm;37751;52.408;12.536;2023-07-16T00:47:21;50.32;43.09;61.87;;
51665;Laerm;37751;52.408;12.536;2023-07-16T00:49:50;51.68;43.22;66.88;;
51665;Laerm;37751;52.408;12.536;2023-07-16T00:52:20;55.87;44.29;69.05;;
51665;Laerm;37751;52.408;12.536;2023-07-16T00:54:50;53.15;42.46;72.66;;
51665;Laerm;37751;52.408;12.536;2023-07-16T00:57:18;54.02;44.86;67.75;;
51665;Laerm;37751;52.408;12.536;2023-07-16T00:59:46;57.46;45.62;72.47;;
51665;Laerm;37751;52.408;12.536;2023-07-16T01:02:14;53.65;46.17;65.36;;
51665;Laerm;37751;52.408;12.536;2023-07-16T01:04:42;52.15;44.09;66.60;;
51665;Laerm;37751;52.408;12.536;2023-07-16T01:07:11;54.86;46.01;72.52;;
51665;Laerm;37751;52.408;12.536;2023-07-16T01:09:42;58.01;43.98;75.76;;
51665;Laerm;37751;52.408;12.536;2023-07-16T01:12:12;52.05;44.68;63.93;;
51665;Laerm;37751;52.408;12.536;2023-07-16T01:14:41;55.65;43.47;73.68;;
51665;Laerm;37751;52.408;12.536;2023-07-16T01:17:09;48.35;42.89;69.32;;
51665;Laerm;37751;52.408;12.536;2023-07-16T01:19:37;54.55;43.53;72.42;;
51665;Laerm;37751;52.408;12.536;2023-07-16T01:22:33;52.01;44.14;69.58;;
51665;Laerm;37751;52.408;12.536;2023-07-16T01:30:52;51.87;46.27;66.40;;
51665;Laerm;37751;52.408;12.536;2023-07-16T01:33:21;55.98;47.94;68.81;;
51665;Laerm;37751;52.408;12.536;2023-07-16T01:35:50;54.26;47.33;73.45;;
51665;Laerm;37751;52.408;12.536;2023-07-16T01:38:18;57.78;47.78;73.95;;
51665;Laerm;37751;52.408;12.536;2023-07-16T01:40:48;59.46;49.52;76.39;;
51665;Laerm;37751;52.408;12.536;2023-07-16T01:43:16;56.26;50.15;68.33;;
51665;Laerm;37751;52.408;12.536;2023-07-16T01:45:44;57.32;47.93;69.84;;
51665;Laerm;37751;52.408;12.536;2023-07-16T01:50:59;54.90;48.16;69.38;;
51665;Laerm;37751;52.408;12.536;2023-07-16T01:53:27;63.61;48.84;77.84;;
51665;Laerm;37751;52.408;12.536;2023-07-16T01:55:55;57.46;45.80;69.79;;
51665;Laerm;37751;52.408;12.536;2023-07-16T01:58:23;55.79;45.51;67.73;;
51665;Laerm;37751;52.408;12.536;2023-07-16T02:00:50;55.93;44.77;68.88;;
51665;Laerm;37751;52.408;12.536;2023-07-16T02:03:18;57.50;43.03;72.14;;
51665;Laerm;37751;52.408;12.536;2023-07-16T02:05:46;56.00;42.46;73.45;;
51665;Laerm;37751;52.408;12.536;2023-07-16T02:08:16;55.84;41.62;68.59;;
51665;Laerm;37751;52.408;12.536;2023-07-16T02:10:47;47.41;40.81;61.95;;
51665;Laerm;37751;52.408;12.536;2023-07-16T02:13:15;54.32;41.43;70.03;;
51665;Laerm;37751;52.408;12.536;2023-07-16T02:15:43;56.03;42.53;70.30;;
51665;Laerm;37751;52.408;12.536;2023-07-16T02:18:11;54.04;40.46;73.30;;
51665;Laerm;37751;52.408;12.536;2023-07-16T02:20:39;51.80;40.46;67.93;;
51665;Laerm;37751;52.408;12.536;2023-07-16T02:23:07;56.88;41.80;70.89;;
51665;Laerm;37751;52.408;12.536;2023-07-16T02:25:34;55.43;40.70;70.44;;
51665;Laerm;37751;52.408;12.536;2023-07-16T02:28:02;55.75;39.95;71.43;;
51665;Laerm;37751;52.408;12.536;2023-07-16T02:30:30;51.54;40.81;66.21;;
51665;Laerm;37751;52.408;12.536;2023-07-16T02:32:58;45.97;40.81;62.83;;
51665;Laerm;37751;52.408;12.536;2023-07-16T02:35:28;55.49;42.82;72.65;;
51665;Laerm;37751;52.408;12.536;2023-07-16T02:37:56;58.65;41.71;71.46;;
51665;Laerm;37751;52.408;12.536;2023-07-16T02:40:26;56.84;42.06;72.30;;
51665;Laerm;37751;52.408;12.536;2023-07-16T02:42:54;54.46;41.23;70.03;;
51665;Laerm;37751;52.408;12.536;2023-07-16T02:45:22;51.31;41.43;66.09;;
51665;Laerm;37751;52.408;12.536;2023-07-16T02:47:49;54.64;44.09;70.32;;
51665;Laerm;37751;52.408;12.536;2023-07-16T02:50:17;61.49;41.13;78.92;;
51665;Laerm;37751;52.408;12.536;2023-07-16T02:52:45;55.04;41.23;68.96;;
51665;Laerm;37751;52.408;12.536;2023-07-16T02:55:13;60.10;45.39;72.10;;
51665;Laerm;37751;52.408;12.536;2023-07-16T02:57:41;55.47;40.81;68.39;;
51665;Laerm;37751;52.408;12.536;2023-07-16T03:00:09;59.24;43.09;73.06;;
51665;Laerm;37751;52.408;12.536;2023-07-16T03:02:37;57.29;44.94;70.85;;
51665;Laerm;37751;52.408;12.536;2023-07-16T03:05:06;54.82;39.95;65.70;;
51665;Laerm;37751;52.408;12.536;2023-07-16T03:07:34;57.31;39.21;72.43;;
51665;Laerm;37751;52.408;12.536;2023-07-16T03:10:03;54.52;43.16;69.74;;
51665;Laerm;37751;52.408;12.536;2023-07-16T03:12:30;54.92;42.96;66.25;;
51665;Laerm;37751;52.408;12.536;2023-07-16T03:14:58;54.31;39.67;68.71;;
51665;Laerm;37751;52.408;12.536;2023-07-16T03:17:26;51.84;40.34;69.14;;
51665;Laerm;37751;52.408;12.536;2023-07-16T03:19:54;54.73;42.96;71.16;;
51665;Laerm;37751;52.408;12.536;2023-07-16T03:22:22;56.10;42.22;68.28;;
51665;Laerm;37751;52.408;12.536;2023-07-16T03:24:50;57.36;42.82;75.27;;
51665;Laerm;37751;52.408;12.536;2023-07-16T03:27:18;57.92;41.98;70.76;;
51665;Laerm;37751;52.408;12.536;2023-07-16T03:29:53;57.22;41.98;74.93;;
51665;Laerm;37751;52.408;12.536;2023-07-16T03:32:22;58.39;43.35;70.78;;
51665;Laerm;37751;52.408;12.536;2023-07-16T03:34:55;57.38;42.38;72.72;;
51665;Laerm;37751;52.408;12.536;2023-07-16T03:37:25;56.43;45.23;70.41;;
51665;Laerm;37751;52.408;12.536;2023-07-16T03:39:53;59.29;45.27;72.75;;
51665;Laerm;37751;52.408;12.536;2023-07-16T03:42:21;57.62;48.24;68.69;;
51665;Laerm;37751;52.408;12.536;2023-07-16T03:44:50;54.95;44.09;68.61;;
51665;Laerm;37751;52.408;12.536;2023-07-16T03:47:19;59.36;42.61;79.24;;
51665;Laerm;37751;52.408;12.536;2023-07-16T03:49:47;55.46;44.81;70.72;;
51665;Laerm;37751;52.408;12.536;2023-07-16T03:52:14;54.78;44.24;70.38;;
51665;Laerm;37751;52.408;12.536;2023-07-16T03:54:42;58.17;43.22;71.13;;
51665;Laerm;37751;52.408;12.536;2023-07-16T03:57:10;53.48;41.43;69.12;;
51665;Laerm;37751;52.408;12.536;2023-07-16T03:59:38;52.96;41.43;66.86;;
51665;Laerm;37751;52.408;12.536;2023-07-16T04:02:05;55.95;43.41;76.85;;
51665;Laerm;37751;52.408;12.536;2023-07-16T04:04:35;55.86;43.82;68.93;;
51665;Laerm;37751;52.408;12.536;2023-07-16T04:07:03;56.75;43.71;70.77;;
51665;Laerm;37751;52.408;12.536;2023-07-16T04:09:31;56.33;44.54;70.67;;
51665;Laerm;37751;52.408;12.536;2023-07-16T04:11:59;61.15;43.98;78.14;;
51665;Laerm;37751;52.408;12.536;2023-07-16T04:14:27;52.77;44.04;66.11;;
51665;Laerm;37751;52.408;12.536;2023-07-16T04:16:54;54.04;44.72;63.05;;
51665;Laerm;37751;52.408;12.536;2023-07-16T04:19:22;55.14;44.63;65.69;;
51665;Laerm;37751;52.408;12.536;2023-07-16T04:21:50;58.29;44.63;71.83;;
51665;Laerm;37751;52.408;12.536;2023-07-16T04:24:18;54.67;43.53;68.27;;
51665;Laerm;37751;52.408;12.536;2023-07-16T04:26:46;54.13;43.47;71.02;;
51665;Laerm;37751;52.408;12.536;2023-07-16T04:29:13;54.59;42.82;69.64;;
51665;Laerm;37751;52.408;12.536;2023-07-16T04:31:42;54.71;43.29;70.07;;
51665;Laerm;37751;52.408;12.536;2023-07-16T04:34:09;57.58;42.68;75.77;;
51665;Laerm;37751;52.408;12.536;2023-07-16T04:36:38;59.13;43.16;73.98;;
51665;Laerm;37751;52.408;12.536;2023-07-16T04:39:06;55.56;41.53;74.38;;
51665;Laerm;37751;52.408;12.536;2023-07-16T04:41:34;59.04;44.09;75.79;;
51665;Laerm;37751;52.408;12.536;2023-07-16T04:44:02;56.21;42.30;70.08;;
51665;Laerm;37751;52.408;12.536;2023-07-16T04:46:29;52.77;43.47;68.08;;
51665;Laerm;37751;52.408;12.536;2023-07-16T04:48:58;56.63;43.88;69.22;;
51665;Laerm;37751;52.408;12.536;2023-07-16T04:51:26;57.90;42.75;73.22;;
51665;Laerm;37751;52.408;12.536;2023-07-16T04:53:53;63.32;42.53;84.48;;
51665;Laerm;37751;52.408;12.536;2023-07-16T04:56:21;53.33;41.89;70.11;;
51665;Laerm;37751;52.408;12.536;2023-07-16T04:58:49;54.93;42.89;68.16;;
51665;Laerm;37751;52.408;12.536;2023-07-16T05:01:17;58.12;43.29;74.04;;
51665;Laerm;37751;52.408;12.536;2023-07-16T05:03:44;57.19;43.76;72.16;;
51665;Laerm;37751;52.408;12.536;2023-07-16T05:06:12;53.83;42.61;69.39;;
51665;Laerm;37751;52.408;12.536;2023-07-16T05:08:41;56.00;43.76;70.06;;
51665;Laerm;37751;52.408;12.536;2023-07-16T05:11:09;53.89;43.53;69.77;;
51665;Laerm;37751;52.408;12.536;2023-07-16T05:13:36;54.63;44.09;66.99;;
51665;Laerm;37751;52.408;12.536;2023-07-16T05:16:04;56.63;45.65;71.18;;
51665;Laerm;37751;52.408;12.536;2023-07-16T05:18:32;57.17;44.44;75.96;;
51665;Laerm;37751;52.408;12.536;2023-07-16T05:21:00;54.71;44.24;69.71;;
51665;Laerm;37751;52.408;12.536;2023-07-16T05:23:28;56.34;44.58;68.58;;
51665;Laerm;37751;52.408;12.536;2023-07-16T05:25:55;56.39;43.76;71.37;;
51665;Laerm;37751;52.408;12.536;2023-07-16T05:28:24;54.17;44.34;68.83;;
51665;Laerm;37751;52.408;12.536;2023-07-16T05:31:03;56.21;44.68;70.62;;
51665;Laerm;37751;52.408;12.536;2023-07-16T05:33:31;53.71;42.89;66.62;;
51665;Laerm;37751;52.408;12.536;2023-07-16T05:35:59;57.15;43.79;70.32;;
51665;Laerm;37751;52.408;12.536;2023-07-16T05:38:27;57.81;44.44;72.57;;
51665;Laerm;37751;52.408;12.536;2023-07-16T05:41:01;55.19;42.89;71.30;;
51665;Laerm;37751;52.408;12.536;2023-07-16T05:43:31;57.77;44.39;74.16;;
51665;Laerm;37751;52.408;12.536;2023-07-16T05:45:59;61.89;44.54;81.47;;
51665;Laerm;37751;52.408;12.536;2023-07-16T05:48:27;63.35;44.99;81.84;;
51665;Laerm;37751;52.408;12.536;2023-07-16T05:50:55;56.98;45.23;71.45;;
51665;Laerm;37751;52.408;12.536;2023-07-16T05:53:23;56.71;43.53;72.46;;
51665;Laerm;37751;52.408;12.536;2023-07-16T05:55:51;56.53;45.31;69.67;;
51665;Laerm;37751;52.408;12.536;2023-07-16T05:58:19;54.12;43.98;68.18;;
51665;Laerm;37751;52.408;12.536;2023-07-16T06:00:47;53.40;45.07;64.67;;
51665;Laerm;37751;52.408;12.536;2023-07-16T06:03:15;55.22;45.27;67.82;;
51665;Laerm;37751;52.408;12.536;2023-07-16T06:05:44;58.77;44.34;75.28;;
51665;Laerm;37751;52.408;12.536;2023-07-16T06:08:12;55.78;46.69;70.53;;
51665;Laerm;37751;52.408;12.536;2023-07-16T06:10:40;56.72;45.76;71.15;;
51665;Laerm;37751;52.408;12.536;2023-07-16T06:13:08;56.13;45.11;67.27;;
51665;Laerm;37751;52.408;12.536;2023-07-16T06:15:36;57.28;43.47;69.11;;
51665;Laerm;37751;52.408;12.536;2023-07-16T06:18:04;55.55;44.24;67.03;;
51665;Laerm;37751;52.408;12.536;2023-07-16T06:20:32;56.52;44.58;69.90;;
51665;Laerm;37751;52.408;12.536;2023-07-16T06:23:00;56.18;44.04;69.70;;
51665;Laerm;37751;52.408;12.536;2023-07-16T06:25:28;54.11;43.41;68.45;;
51665;Laerm;37751;52.408;12.536;2023-07-16T06:27:56;56.80;46.27;71.23;;
51665;Laerm;37751;52.408;12.536;2023-07-16T06:30:24;74.53;45.43;95.79;;
51665;Laerm;37751;52.408;12.536;2023-07-16T06:32:52;59.09;46.07;73.49;;
51665;Laerm;37751;52.408;12.536;2023-07-16T06:35:20;71.03;45.31;88.09;;
51665;Laerm;37751;52.408;12.536;2023-07-16T06:37:48;59.54;47.76;71.19;;
51665;Laerm;37751;52.408;12.536;2023-07-16T06:40:18;58.95;45.62;74.36;;
51665;Laerm;37751;52.408;12.536;2023-07-16T06:42:46;60.97;45.27;70.51;;
51665;Laerm;37751;52.408;12.536;2023-07-16T06:45:14;58.77;46.42;71.02;;
51665;Laerm;37751;52.408;12.536;2023-07-16T06:47:42;58.46;43.71;76.83;;
51665;Laerm;37751;52.408;12.536;2023-07-16T06:50:10;59.85;45.51;73.82;;
51665;Laerm;37751;52.408;12.536;2023-07-16T06:52:37;58.84;44.24;71.49;;
51665;Laerm;37751;52.408;12.536;2023-07-16T06:55:06;58.76;44.54;71.67;;
51665;Laerm;37751;52.408;12.536;2023-07-16T06:57:33;54.34;44.29;63.87;;
51665;Laerm;37751;52.408;12.536;2023-07-16T07:00:02;57.64;45.11;71.42;;
51665;Laerm;37751;52.408;12.536;2023-07-16T07:02:30;57.36;42.75;70.43;;
51665;Laerm;37751;52.408;12.536;2023-07-16T07:04:58;59.41;45.47;74.58;;
51665;Laerm;37751;52.408;12.536;2023-07-16T07:07:26;58.93;45.35;68.69;;
51665;Laerm;37751;52.408;12.536;2023-07-16T07:09:54;59.42;46.80;68.84;;
51665;Laerm;37751;52.408;12.536;2023-07-16T07:12:22;57.50;44.86;69.19;;
51665;Laerm;37751;52.408;12.536;2023-07-16T07:14:50;56.19;44.86;69.84;;
51665;Laerm;37751;52.408;12.536;2023-07-16T07:17:18;57.47;43.98;68.23;;
51665;Laerm;37751;52.408;12.536;2023-07-16T07:19:45;62.61;47.55;82.70;;
51665;Laerm;37751;52.408;12.536;2023-07-16T07:22:13;57.69;44.77;67.49;;
51665;Laerm;37751;52.408;12.536;2023-07-16T07:24:41;59.05;46.20;70.94;;
51665;Laerm;37751;52.408;12.536;2023-07-16T07:27:09;57.72;46.54;68.36;;
51665;Laerm;37751;52.408;12.536;2023-07-16T07:29:37;58.46;47.18;67.82;;
51665;Laerm;37751;52.408;12.536;2023-07-16T07:32:05;56.92;45.43;71.74;;
51665;Laerm;37751;52.408;12.536;2023-07-16T07:34:33;58.69;46.07;75.03;;
51665;Laerm;37751;52.408;12.536;2023-07-16T07:37:01;59.83;48.32;70.13;;
51665;Laerm;37751;52.408;12.536;2023-07-16T07:39:29;60.96;49.84;74.11;;
51665;Laerm;37751;52.408;12.536;2023-07-16T07:41:57;58.50;46.91;68.83;;
51665;Laerm;37751;52.408;12.536;2023-07-16T07:44:25;61.07;47.35;73.77;;
51665;Laerm;37751;52.408;12.536;2023-07-16T07:46:56;61.55;46.51;75.70;;
51665;Laerm;37751;52.408;12.536;2023-07-16T07:49:23;61.77;46.45;76.54;;
51665;Laerm;37751;52.408;12.536;2023-07-16T07:51:51;61.52;48.30;74.63;;
51665;Laerm;37751;52.408;12.536;2023-07-16T07:54:21;57.98;48.12;69.71;;
51665;Laerm;37751;52.408;12.536;2023-07-16T07:56:49;64.16;49.84;88.39;;
51665;Laerm;37751;52.408;12.536;2023-07-16T07:59:17;59.85;48.90;71.65;;
51665;Laerm;37751;52.408;12.536;2023-07-16T08:01:45;60.57;48.04;73.29;;
51665;Laerm;37751;52.408;12.536;2023-07-16T08:04:15;60.78;50.45;72.32;;
51665;Laerm;37751;52.408;12.536;2023-07-16T08:06:44;61.33;49.13;74.97;;
51665;Laerm;37751;52.408;12.536;2023-07-16T08:09:13;59.72;49.07;72.37;;
51665;Laerm;37751;52.408;12.536;2023-07-16T08:11:41;60.23;50.16;74.33;;
51665;Laerm;37751;52.408;12.536;2023-07-16T08:14:08;61.57;47.71;73.03;;
51665;Laerm;37751;52.408;12.536;2023-07-16T08:16:41;60.75;49.07;72.64;;
51665;Laerm;37751;52.408;12.536;2023-07-16T08:19:09;61.16;47.95;70.46;;
51665;Laerm;37751;52.408;12.536;2023-07-16T08:21:37;58.82;46.36;67.95;;
51665;Laerm;37751;52.408;12.536;2023-07-16T08:24:06;59.57;49.18;69.06;;
51665;Laerm;37751;52.408;12.536;2023-07-16T08:26:34;59.67;46.45;80.23;;
51665;Laerm;37751;52.408;12.536;2023-07-16T08:29:04;60.68;47.33;76.46;;
51665;Laerm;37751;52.408;12.536;2023-07-16T08:31:32;60.54;48.91;73.51;;
51665;Laerm;37751;52.408;12.536;2023-07-16T08:34:02;59.32;49.70;68.19;;
51665;Laerm;37751;52.408;12.536;2023-07-16T08:36:33;60.55;48.46;71.16;;
51665;Laerm;37751;52.408;12.536;2023-07-16T08:39:01;59.55;49.61;71.32;;
51665;Laerm;37751;52.408;12.536;2023-07-16T08:41:29;62.45;48.59;73.45;;
51665;Laerm;37751;52.408;12.536;2023-07-16T08:43:59;61.15;49.52;70.49;;
51665;Laerm;37751;52.408;12.536;2023-07-16T08:46:27;61.67;48.63;70.18;;
51665;Laerm;37751;52.408;12.536;2023-07-16T08:48:56;60.49;49.43;71.77;;
51665;Laerm;37751;52.408;12.536;2023-07-16T08:51:28;60.63;47.61;71.06;;
51665;Laerm;37751;52.408;12.536;2023-07-16T08:53:56;61.36;48.06;71.35;;
51665;Laerm;37751;52.408;12.536;2023-07-16T08:56:24;60.21;45.58;68.32;;
51665;Laerm;37751;52.408;12.536;2023-07-16T08:58:57;61.52;48.81;75.03;;
51665;Laerm;37751;52.408;12.536;2023-07-16T09:01:25;59.45;51.00;69.70;;
51665;Laerm;37751;52.408;12.536;2023-07-16T09:03:53;60.77;50.92;70.59;;
51665;Laerm;37751;52.408;12.536;2023-07-16T09:06:21;62.29;50.66;77.98;;
51665;Laerm;37751;52.408;12.536;2023-07-16T09:08:50;60.23;47.07;69.78;;
51665;Laerm;37751;52.408;12.536;2023-07-16T09:11:19;58.99;46.20;74.69;;
51665;Laerm;37751;52.408;12.536;2023-07-16T09:13:50;61.89;46.75;72.81;;
51665;Laerm;37751;52.408;12.536;2023-07-16T09:16:18;69.09;49.57;90.35;;
51665;Laerm;37751;52.408;12.536;2023-07-16T09:18:49;61.60;47.89;75.86;;
51665;Laerm;37751;52.408;12.536;2023-07-16T09:21:18;61.68;51.52;72.97;;
51665;Laerm;37751;52.408;12.536;2023-07-16T09:23:46;58.93;48.67;68.91;;
51665;Laerm;37751;52.408;12.536;2023-07-16T09:26:14;60.97;48.28;71.43;;
51665;Laerm;37751;52.408;12.536;2023-07-16T09:28:48;60.43;48.18;69.76;;
51665;Laerm;37751;52.408;12.536;2023-07-16T09:31:17;62.08;47.62;79.58;;
51665;Laerm;37751;52.408;12.536;2023-07-16T09:33:46;61.47;47.91;72.12;;
51665;Laerm;37751;52.408;12.536;2023-07-16T09:36:24;57.77;46.45;68.79;;
51665;Laerm;37751;52.408;12.536;2023-07-16T09:38:53;62.47;47.50;75.66;;
51665;Laerm;37751;52.408;12.536;2023-07-16T09:41:22;58.90;46.30;73.88;;
51665;Laerm;37751;52.408;12.536;2023-07-16T09:43:50;60.20;46.23;77.63;;
51665;Laerm;37751;52.408;12.536;2023-07-16T09:46:27;63.40;50.46;76.82;;
51665;Laerm;37751;52.408;12.536;2023-07-16T09:48:55;63.76;50.66;83.56;;
51665;Laerm;37751;52.408;12.536;2023-07-16T09:51:24;59.93;48.70;69.39;;
51665;Laerm;37751;52.408;12.536;2023-07-16T09:53:53;62.26;51.10;72.23;;
51665;Laerm;37751;52.408;12.536;2023-07-16T09:56:24;58.67;46.97;69.73;;
51665;Laerm;37751;52.408;12.536;2023-07-16T09:59:23;60.09;45.27;70.61;;
51665;Laerm;37751;52.408;12.536;2023-07-16T10:01:55;61.42;48.28;74.53;;
51665;Laerm;37751;52.408;12.536;2023-07-16T10:04:38;59.07;46.51;68.75;;
51665;Laerm;37751;52.408;12.536;2023-07-16T10:07:24;65.18;45.97;84.58;;
51665;Laerm;37751;52.408;12.536;2023-07-16T10:09:56;61.96;47.93;72.41;;
51665;Laerm;37751;52.408;12.536;2023-07-16T10:12:26;60.37;49.92;72.36;;
51665;Laerm;37751;52.408;12.536;2023-07-16T10:15:02;59.46;47.73;79.26;;
51665;Laerm;37751;52.408;12.536;2023-07-16T10:17:33;60.04;47.89;73.57;;
51665;Laerm;37751;52.408;12.536;2023-07-16T10:20:08;60.75;48.36;70.58;;
51665;Laerm;37751;52.408;12.536;2023-07-16T10:22:45;59.84;49.29;70.51;;
51665;Laerm;37751;52.408;12.536;2023-07-16T10:27:52;61.15;48.09;70.82;;
51665;Laerm;37751;52.408;12.536;2023-07-16T10:30:22;71.73;48.34;91.04;;
51665;Laerm;37751;52.408;12.536;2023-07-16T10:32:54;61.06;49.34;70.79;;
51665;Laerm;37751;52.408;12.536;2023-07-16T10:35:23;82.09;48.02;100.71;;
51665;Laerm;37751;52.408;12.536;2023-07-16T10:37:51;62.27;51.95;74.35;;
51665;Laerm;37751;52.408;12.536;2023-07-16T10:40:18;62.53;48.24;78.47;;
51665;Laerm;37751;52.408;12.536;2023-07-16T10:42:49;62.07;48.22;76.90;;
51665;Laerm;37751;52.408;12.536;2023-07-16T10:45:21;64.23;50.96;76.11;;
51665;Laerm;37751;52.408;12.536;2023-07-16T10:47:59;60.89;49.02;76.64;;
51665;Laerm;37751;52.408;12.536;2023-07-16T10:50:28;63.04;50.10;80.88;;
51665;Laerm;37751;52.408;12.536;2023-07-16T10:52:56;61.17;49.37;74.15;;
51665;Laerm;37751;52.408;12.536;2023-07-16T10:55:27;60.09;48.48;69.98;;
51665;Laerm;37751;52.408;12.536;2023-07-16T10:57:56;62.55;49.08;78.87;;
51665;Laerm;37751;52.408;12.536;2023-07-16T11:00:24;64.60;51.57;75.30;;
51665;Laerm;37751;52.408;12.536;2023-07-16T11:02:54;65.49;50.32;80.30;;
51665;Laerm;37751;52.408;12.536;2023-07-16T11:05:25;60.99;49.54;70.27;;
51665;Laerm;37751;52.408;12.536;2023-07-16T11:07:55;61.40;49.10;72.23;;
51665;Laerm;37751;52.408;12.536;2023-07-16T11:10:24;62.89;50.04;80.52;;
51665;Laerm;37751;52.408;12.536;2023-07-16T11:13:05;62.06;50.21;74.91;;
51665;Laerm;37751;52.408;12.536;2023-07-16T11:15:36;64.38;46.66;84.77;;
51665;Laerm;37751;52.408;12.536;2023-07-16T11:18:10;61.20;48.26;70.83;;
51665;Laerm;37751;52.408;12.536;2023-07-16T11:20:39;62.29;49.31;72.40;;
51665;Laerm;37751;52.408;12.536;2023-07-16T11:23:17;60.71;51.27;71.09;;
51665;Laerm;37751;52.408;12.536;2023-07-16T11:25:48;61.99;49.15;77.71;;
51665;Laerm;37751;52.408;12.536;2023-07-16T11:28:18;61.17;51.77;72.40;;
51665;Laerm;37751;52.408;12.536;2023-07-16T11:31:09;74.92;49.60;94.16;;
51665;Laerm;37751;52.408;12.536;2023-07-16T11:33:51;74.09;51.71;97.27;;
51665;Laerm;37751;52.408;12.536;2023-07-16T11:36:23;62.64;51.75;77.64;;
51665;Laerm;37751;52.408;12.536;2023-07-16T11:38:55;61.32;48.30;71.62;;
51665;Laerm;37751;52.408;12.536;2023-07-16T11:41:25;59.50;50.57;68.32;;
51665;Laerm;37751;52.408;12.536;2023-07-16T11:43:53;60.26;48.08;70.70;;
51665;Laerm;37751;52.408;12.536;2023-07-16T11:46:23;62.03;49.08;76.34;;
51665;Laerm;37751;52.408;12.536;2023-07-16T11:48:52;67.10;47.93;89.21;;
51665;Laerm;37751;52.408;12.536;2023-07-16T11:51:23;61.22;49.16;70.87;;
51665;Laerm;37751;52.408;12.536;2023-07-16T11:53:56;62.11;51.03;73.75;;
51665;Laerm;37751;52.408;12.536;2023-07-16T11:56:27;62.94;50.89;72.79;;
51665;Laerm;37751;52.408;12.536;2023-07-16T11:58:55;62.24;48.34;76.49;;
51665;Laerm;37751;52.408;12.536;2023-07-16T12:01:23;60.79;51.25;73.13;;
51665;Laerm;37751;52.408;12.536;2023-07-16T12:03:51;64.20;51.52;77.32;;
51665;Laerm;37751;52.408;12.536;2023-07-16T12:06:22;63.11;48.88;77.81;;
51665;Laerm;37751;52.408;12.536;2023-07-16T12:08:50;64.69;49.90;82.84;;
51665;Laerm;37751;52.408;12.536;2023-07-16T12:11:18;60.48;51.32;71.19;;
51665;Laerm;37751;52.408;12.536;2023-07-16T12:13:46;61.43;47.05;70.28;;
51665;Laerm;37751;52.408;12.536;2023-07-16T12:16:14;61.71;47.43;76.17;;
51665;Laerm;37751;52.408;12.536;2023-07-16T12:18:52;61.11;45.31;72.50;;
51665;Laerm;37751;52.408;12.536;2023-07-16T12:21:25;61.36;49.98;75.86;;
51665;Laerm;37751;52.408;12.536;2023-07-16T12:23:53;61.59;48.04;72.05;;
51665;Laerm;37751;52.408;12.536;2023-07-16T12:26:21;66.38;50.21;85.84;;
51665;Laerm;37751;52.408;12.536;2023-07-16T12:28:49;61.50;51.35;72.27;;
51665;Laerm;37751;52.408;12.536;2023-07-16T12:31:18;63.02;51.75;72.82;;
51665;Laerm;37751;52.408;12.536;2023-07-16T12:33:48;62.02;49.29;72.49;;
51665;Laerm;37751;52.408;12.536;2023-07-16T12:36:17;63.88;50.34;80.32;;
51665;Laerm;37751;52.408;12.536;2023-07-16T12:38:45;62.23;50.41;72.60;;
51665;Laerm;37751;52.408;12.536;2023-07-16T12:41:13;61.20;48.96;71.36;;
51665;Laerm;37751;52.408;12.536;2023-07-16T12:43:42;64.90;53.72;81.01;;
51665;Laerm;37751;52.408;12.536;2023-07-16T12:46:10;63.37;51.86;74.65;;
51665;Laerm;37751;52.408;12.536;2023-07-16T12:48:38;61.52;48.44;71.31;;
51665;Laerm;37751;52.408;12.536;2023-07-16T12:51:09;61.81;47.78;73.79;;
51665;Laerm;37751;52.408;12.536;2023-07-16T12:53:37;60.20;49.81;71.37;;
51665;Laerm;37751;52.408;12.536;2023-07-16T12:56:06;61.41;49.87;74.61;;
51665;Laerm;37751;52.408;12.536;2023-07-16T12:58:36;62.07;45.83;74.50;;
51665;Laerm;37751;52.408;12.536;2023-07-16T13:01:04;61.38;48.10;73.25;;
51665;Laerm;37751;52.408;12.536;2023-07-16T13:03:35;63.33;48.70;79.73;;
51665;Laerm;37751;52.408;12.536;2023-07-16T13:06:04;64.21;51.79;73.29;;
51665;Laerm;37751;52.408;12.536;2023-07-16T13:08:32;61.09;49.48;72.15;;
51665;Laerm;37751;52.408;12.536;2023-07-16T13:11:00;60.54;46.91;72.39;;
51665;Laerm;37751;52.408;12.536;2023-07-16T13:13:30;61.50;50.93;69.59;;
51665;Laerm;37751;52.408;12.536;2023-07-16T13:15:58;67.21;50.92;89.02;;
51665;Laerm;37751;52.408;12.536;2023-07-16T13:18:26;64.40;49.90;81.23;;
51665;Laerm;37751;52.408;12.536;2023-07-16T13:20:54;60.50;47.91;75.19;;
51665;Laerm;37751;52.408;12.536;2023-07-16T13:23:22;60.71;46.23;72.46;;
51665;Laerm;37751;52.408;12.536;2023-07-16T13:25:53;62.24;49.78;73.69;;
51665;Laerm;37751;52.408;12.536;2023-07-16T13:28:32;61.81;51.61;71.85;;
51665;Laerm;37751;52.408;12.536;2023-07-16T13:31:02;65.59;46.39;86.05;;
51665;Laerm;37751;52.408;12.536;2023-07-16T13:33:30;63.20;48.63;76.60;;
51665;Laerm;37751;52.408;12.536;2023-07-16T13:36:01;59.76;47.30;70.46;;
51665;Laerm;37751;52.408;12.536;2023-07-16T13:38:31;61.27;47.80;73.02;;
51665;Laerm;37751;52.408;12.536;2023-07-16T13:40:59;64.58;50.97;79.11;;
51665;Laerm;37751;52.408;12.536;2023-07-16T13:43:29;60.16;48.88;72.19;;
51665;Laerm;37751;52.408;12.536;2023-07-16T13:45:57;62.39;47.15;73.75;;
51665;Laerm;37751;52.408;12.536;2023-07-16T13:48:25;64.35;48.57;80.25;;
51665;Laerm;37751;52.408;12.536;2023-07-16T13:50:53;59.89;46.66;70.09;;
51665;Laerm;37751;52.408;12.536;2023-07-16T13:53:23;61.74;46.51;70.70;;